This is the latest recevied weather packets stored in our database for station/object SAVIL. If no packets are shown the sender has not sent any weather packets the latest 10 day(s).
| Time | Temp. | Humidity | Pressure | Rain* | Wind** | Luminosity | Snow |
|---|---|---|---|---|---|---|---|
| 1788413077 | 11.67° C | 91% | 1004.1 hPa | 0.25 mm | - | - | - |
| 1788410676 | 11.67° C | 91% | 1004.2 hPa | 0.25 mm | - | - | - |
| 1788409477 | 11.67° C | 91% | 1004.1 hPa | 0.25 mm | - | - | - |
| 1788408276 | 11.11° C | 92% | 1004.2 hPa | 0.25 mm | - | - | - |
| 1788407077 | 11.11° C | 92% | 1004.3 hPa | 0.25 mm | - | - | - |
| 1788406866 | 10.56° C | 94% | 1004.3 hPa | 0.25 mm | - | - | - |
| 1788404675 | 10° C | 95% | 1004.5 hPa | 0.25 mm | - | - | - |
| 1788403476 | 10° C | 95% | 1004.5 hPa | 0.25 mm | - | - | - |
| 1788402276 | 10.56° C | 94% | 1004.6 hPa | 0.25 mm | - | - | - |
| 1788377075 | 11.67° C | 95% | 1005.6 hPa | 0.25 mm | - | - | - |
| 1788375877 | 12.22° C | 92% | 1005.4 hPa | 0.25 mm | - | - | - |
| 1788373475 | 12.22° C | 93% | 1005.5 hPa | 0.25 mm | - | - | - |
| 1788372273 | 12.22° C | 94% | 1005.6 hPa | 0.25 mm | - | - | - |
| 1788369874 | 13.33° C | 88% | 1005.6 hPa | 0.25 mm | - | - | - |
| 1788367474 | 15° C | 80% | 1005.4 hPa | 0.25 mm | - | - | - |
| 1788366274 | 15.56° C | 75% | 1005.4 hPa | 0.25 mm | - | - | - |
| 1788365073 | 16.11° C | 72% | 1005.4 hPa | 0.25 mm | - | - | - |
| 1788362673 | 17.78° C | 60% | 1005.3 hPa | 0.25 mm | - | - | - |
| 1788361475 | 18.33° C | 58% | 1005.3 hPa | 0.25 mm | - | - | - |
| 1788359073 | 17.22° C | 62% | 1005.4 hPa | 0.25 mm | - | - | - |
| 1788356672 | 18.33° C | 60% | 1005.3 hPa | 0.25 mm | - | - | - |
| 1788355472 | 18.33° C | 60% | 1005.3 hPa | 0.25 mm | - | - | - |
| 1788354273 | 17.78° C | 61% | 1005.4 hPa | 0.25 mm | - | - | - |
| 1788351872 | 18.33° C | 58% | 1005.5 hPa | 0.25 mm | - | - | - |
| 1788349473 | 17.78° C | 61% | 1005.6 hPa | 0.25 mm | - | - | - |
* Rain latest hour (hover to see other rain measurements)
** Current wind speed in m/s (hover to see current wind gust speed)